createdAt,value
2023-04-02T00:02:02.056Z,99557.66
2023-04-02T00:05:35.050Z,99586.50
2023-04-02T00:08:56.987Z,99585.94
2023-04-02T00:12:32.575Z,99580.88
2023-04-02T00:15:55.330Z,99572.66
2023-04-02T00:19:18.939Z,99578.38
2023-04-02T00:30:13.395Z,99577.75
2023-04-02T00:33:51.574Z,99545.72
2023-04-02T00:37:00.078Z,99561.28
2023-04-02T00:40:26.884Z,99579.69
2023-04-02T00:43:37.129Z,99548.06
2023-04-02T00:46:55.954Z,99581.91
2023-04-02T00:50:31.274Z,99579.00
2023-04-02T00:53:43.655Z,99587.66
2023-04-02T00:56:55.883Z,99595.72
2023-04-02T01:00:20.059Z,99571.69
2023-04-02T01:03:31.273Z,99586.69
2023-04-02T01:06:38.414Z,99585.09
2023-04-02T01:09:53.559Z,99593.91
2023-04-02T01:13:24.787Z,99591.69
2023-04-02T01:17:11.363Z,99589.72
2023-04-02T01:21:01.730Z,99594.75
2023-04-02T01:24:11.221Z,99595.34
2023-04-02T01:28:02.770Z,99571.78
2023-04-02T01:31:27.994Z,99585.13
2023-04-02T01:34:48.250Z,99592.78
2023-04-02T01:38:27.480Z,99592.34
2023-04-02T01:42:04.214Z,99589.72
2023-04-02T01:45:54.441Z,99589.09
2023-04-02T01:49:14.045Z,99582.56
2023-04-02T01:58:08.226Z,99610.50
2023-04-02T02:05:30.840Z,99613.28
2023-04-02T02:09:16.017Z,99613.25
2023-04-02T02:17:01.287Z,99594.03
2023-04-02T02:20:46.213Z,99623.63
2023-04-02T02:24:52.889Z,99612.63
2023-04-02T02:28:57.894Z,99624.75
2023-04-02T02:32:16.907Z,99614.84
2023-04-02T02:40:21.770Z,99626.53
2023-04-02T02:56:12.201Z,99618.97
2023-04-02T02:59:28.213Z,99618.47
2023-04-02T03:02:40.410Z,99622.28
2023-04-02T03:05:58.362Z,99623.63
2023-04-02T03:09:34.740Z,99633.13
2023-04-02T03:13:15.988Z,99632.75
2023-04-02T03:16:48.491Z,99615.31
2023-04-02T03:20:12.747Z,99627.69
2023-04-02T03:23:44.782Z,99606.66
2023-04-02T03:27:22.662Z,99630.94
2023-04-02T03:35:20.625Z,99629.19
2023-04-02T03:38:58.461Z,99633.88
2023-04-02T03:42:51.077Z,99632.63
2023-04-02T03:46:48.260Z,99625.31
2023-04-02T03:50:39.761Z,99622.28
2023-04-02T03:57:41.408Z,99639.44
2023-04-02T04:01:15.385Z,99620.22
2023-04-02T04:05:15.011Z,99646.53
2023-04-02T04:09:12.013Z,99645.47
2023-04-02T04:16:36.582Z,99655.84
2023-04-02T04:20:01.949Z,99645.38
2023-04-02T04:23:44.424Z,99663.41
2023-04-02T04:27:17.492Z,99671.88
2023-04-02T04:31:27.306Z,99671.34
2023-04-02T04:35:07.007Z,99669.88
2023-04-02T04:43:20.938Z,99653.84
2023-04-02T04:51:43.936Z,99657.28
2023-04-02T05:03:14.613Z,99680.72
2023-04-02T05:12:13.915Z,99678.63
2023-04-02T05:16:43.987Z,99687.03
2023-04-02T05:29:53.364Z,99703.81
2023-04-02T05:42:21.549Z,99711.59
2023-04-02T05:55:35.843Z,99732.22
2023-04-02T06:04:40.938Z,99734.72
2023-04-02T06:08:40.331Z,99710.06
2023-04-02T06:16:41.652Z,99733.72
2023-04-02T06:20:24.069Z,99728.09
2023-04-02T06:24:05.111Z,99736.88
2023-04-02T06:27:35.721Z,99733.19
2023-04-02T06:31:16.697Z,99725.13
2023-04-02T06:43:07.076Z,99749.59
2023-04-02T06:47:35.312Z,99738.69
2023-04-02T06:56:09.614Z,99771.84
2023-04-02T07:08:22.716Z,99759.81
2023-04-02T07:16:39.962Z,99755.63
2023-04-02T07:20:43.559Z,99759.31
2023-04-02T07:24:11.559Z,99766.56
2023-04-02T07:28:03.951Z,99771.03
2023-04-02T07:32:14.976Z,99746.91
2023-04-02T07:35:42.653Z,99769.03
2023-04-02T07:39:05.668Z,99755.81
2023-04-02T07:42:19.380Z,99764.91
2023-04-02T07:45:37.005Z,99784.75
2023-04-02T07:48:55.909Z,99787.00
2023-04-02T07:56:04.498Z,99795.72
2023-04-02T07:59:35.091Z,99784.19
2023-04-02T08:06:57.685Z,99777.28
2023-04-02T08:10:28.274Z,99796.94
2023-04-02T08:17:28.056Z,99784.81
2023-04-02T08:21:08.284Z,99813.31
2023-04-02T08:25:17.364Z,99819.03
2023-04-02T09:00:16.730Z,99838.19
2023-04-02T09:04:38.665Z,99808.97
2023-04-02T09:12:51.831Z,99806.63
2023-04-02T09:17:23.525Z,99834.28
2023-04-02T09:47:08.560Z,99858.25
2023-04-02T09:59:41.939Z,99862.38
2023-04-02T10:25:26.009Z,99862.72
2023-04-02T10:28:23.698Z,99856.38
2023-04-02T10:32:03.449Z,99843.47
2023-04-02T10:35:53.356Z,99865.09
2023-04-02T10:39:24.825Z,99852.13
2023-04-02T10:42:37.055Z,99856.53
2023-04-02T10:46:16.074Z,99834.56
2023-04-02T10:49:55.423Z,99858.38
2023-04-02T10:53:20.722Z,99857.38
2023-04-02T10:56:29.781Z,99856.38
2023-04-02T10:59:43.740Z,99839.88
2023-04-02T11:03:08.428Z,99852.84
2023-04-02T11:06:28.510Z,99857.41
2023-04-02T11:09:43.352Z,99857.88
2023-04-02T11:12:59.999Z,99849.22
2023-04-02T11:16:13.219Z,99846.53
2023-04-02T11:19:19.938Z,99847.28
2023-04-02T11:22:25.055Z,99827.69
2023-04-02T11:25:32.571Z,99828.47
2023-04-02T11:28:45.870Z,99791.28
2023-04-02T11:32:18.082Z,99834.13
2023-04-02T11:35:42.342Z,99826.53
2023-04-02T11:39:07.629Z,99826.38
2023-04-02T11:42:21.240Z,99824.56
2023-04-02T11:45:27.798Z,99822.09
2023-04-02T11:48:41.622Z,99831.41
2023-04-02T11:52:13.009Z,99828.09
2023-04-02T11:55:35.511Z,99825.47
2023-04-02T11:58:55.632Z,99822.22
2023-04-02T12:02:25.564Z,99839.09
2023-04-02T12:05:58.455Z,99826.63
2023-04-02T12:09:39.597Z,99819.88
2023-04-02T12:12:59.132Z,99823.31
2023-04-02T12:16:16.199Z,99806.19
2023-04-02T12:19:27.615Z,99812.19
2023-04-02T12:23:03.751Z,99806.31
2023-04-02T12:26:49.496Z,99799.16
2023-04-02T12:30:16.923Z,99811.19
2023-04-02T12:34:11.165Z,99798.50
2023-04-02T12:37:46.264Z,99801.28
2023-04-02T12:45:42.938Z,99776.19
2023-04-02T12:50:16.755Z,99772.28
2023-04-02T12:53:47.180Z,99794.75
2023-04-02T12:57:24.166Z,99789.34
2023-04-02T13:00:58.615Z,99789.69
2023-04-02T13:04:27.489Z,99802.81
2023-04-02T13:08:18.957Z,99789.03
2023-04-02T13:15:33.468Z,99797.22
2023-04-02T13:19:27.302Z,99795.63
2023-04-02T13:22:42.977Z,99776.41
2023-04-02T13:25:50.344Z,99772.41
2023-04-02T13:29:13.889Z,99784.44
2023-04-02T13:32:23.115Z,99798.06
2023-04-02T13:35:45.417Z,99798.03
2023-04-02T13:39:19.299Z,99807.38
2023-04-02T13:42:49.690Z,99805.97
2023-04-02T13:46:23.227Z,99792.53
2023-04-02T13:49:32.785Z,99782.50
2023-04-02T13:52:40.982Z,99795.19
2023-04-02T13:55:50.293Z,99803.84
2023-04-02T13:59:17.116Z,99795.34
2023-04-02T14:02:35.232Z,99791.75
2023-04-02T14:05:50.635Z,99797.91
2023-04-02T14:09:39.407Z,99796.09
2023-04-02T14:13:04.249Z,99796.38
2023-04-02T14:17:03.650Z,99782.50
2023-04-02T14:20:44.032Z,99790.63
2023-04-02T14:24:19.012Z,99763.13
2023-04-02T14:28:02.861Z,99799.44
2023-04-02T14:35:43.729Z,99810.78
2023-04-02T14:40:02.769Z,99815.22
2023-04-02T14:43:35.273Z,99843.78
2023-04-02T14:47:18.188Z,99843.19
2023-04-02T14:51:24.724Z,99841.63
2023-04-02T14:55:00.738Z,99855.38
2023-04-02T14:58:27.255Z,99862.41
2023-04-02T15:01:43.903Z,99834.13
2023-04-02T15:05:14.749Z,99879.56
2023-04-02T15:08:58.845Z,99849.97
2023-04-02T15:12:30.685Z,99861.09
2023-04-02T15:15:40.765Z,99893.53
2023-04-02T15:19:10.194Z,99907.47
2023-04-02T15:23:08.838Z,99904.19
2023-04-02T15:26:39.914Z,99916.03
2023-04-02T15:30:22.514Z,99954.09
2023-04-02T15:34:01.483Z,99953.06
2023-04-02T15:46:20.614Z,99926.31
2023-04-02T15:50:13.170Z,99952.31
2023-04-02T15:54:19.315Z,99944.59
2023-04-02T15:58:29.675Z,99931.19
2023-04-02T16:02:20.384Z,99936.44
2023-04-02T16:05:46.383Z,99935.31
2023-04-02T16:09:38.577Z,99924.47
2023-04-02T16:13:57.775Z,99915.59
2023-04-02T16:27:58.344Z,99941.94
2023-04-02T17:20:12.714Z,100016.34
2023-04-02T17:24:27.893Z,100025.97
2023-04-02T17:28:53.449Z,100025.94
2023-04-02T17:32:46.657Z,100005.00
2023-04-02T17:40:56.575Z,100043.38
2023-04-02T17:45:07.451Z,100044.03
2023-04-02T17:49:02.048Z,100056.34
2023-04-02T17:57:07.132Z,100065.72
2023-04-02T18:14:08.440Z,100094.34
2023-04-02T18:34:37.034Z,100128.09
2023-04-02T18:48:21.325Z,100151.34
2023-04-02T19:10:42.013Z,100165.19
2023-04-02T19:14:45.979Z,100182.97
2023-04-02T19:34:22.107Z,100210.00
2023-04-02T19:50:12.060Z,100225.19
2023-04-02T19:53:52.822Z,100227.34
2023-04-02T20:14:20.316Z,100265.63
2023-04-02T20:17:56.544Z,100240.78
2023-04-02T20:33:40.049Z,100280.94
2023-04-02T20:37:08.392Z,100292.41
2023-04-02T20:40:34.335Z,100265.25
2023-04-02T20:44:09.993Z,100297.44
2023-04-02T20:47:18.250Z,100297.91
2023-04-02T20:50:35.893Z,100317.22
2023-04-02T20:53:57.618Z,100317.91
2023-04-02T20:57:24.595Z,100328.03
2023-04-02T21:00:37.783Z,100316.72
2023-04-02T21:03:52.567Z,100334.56
2023-04-02T21:40:43.644Z,100349.06
2023-04-02T21:54:28.048Z,100397.09
2023-04-02T21:57:29.090Z,100392.88
2023-04-02T22:01:03.442Z,100396.47
2023-04-02T22:04:55.463Z,100402.81
2023-04-02T22:08:15.625Z,100406.25
2023-04-02T22:15:45.455Z,100410.31
2023-04-02T22:19:18.121Z,100382.50
2023-04-02T22:23:12.653Z,100400.59
2023-04-02T22:26:19.101Z,100411.94
2023-04-02T22:30:02.519Z,100432.94
2023-04-02T22:37:17.308Z,100437.91
2023-04-02T22:55:26.850Z,100424.34
2023-04-02T23:03:55.856Z,100419.09
2023-04-02T23:07:42.322Z,100453.63
2023-04-02T23:11:25.864Z,100463.41
2023-04-02T23:15:10.968Z,100446.53
2023-04-02T23:18:22.345Z,100462.09
2023-04-02T23:21:59.497Z,100455.91
2023-04-02T23:25:43.308Z,100469.91
2023-04-02T23:29:18.929Z,100466.50
2023-04-02T23:33:36.273Z,100481.47
2023-04-02T23:36:49.280Z,100484.38
2023-04-02T23:40:02.269Z,100478.88
2023-04-02T23:43:08.418Z,100482.47
2023-04-02T23:46:25.937Z,100487.47
2023-04-02T23:49:56.825Z,100489.78
2023-04-02T23:53:14.236Z,100493.50
2023-04-02T23:56:18.027Z,100482.84
2023-04-02T23:59:26.824Z,100488.22
